Time;durP1;ratioP1;P1;durP2;ratioP2;P2;SDS_P1;SDS_P2;PMS_P1;PMS_P2;Temp;Humidity;BMP_temperature;BMP_pressure;BME280_temperature;BME280_humidity;BME280_pressure;Samples;Min_cycle;Max_cycle;Signal;HPM_P1;HPM_P2
2021/11/15 00:00:21;;;;;;;47.27;17.33;;;;;;;;;;6240217;23;20258;-90
2021/11/15 00:03:29;;;;;;;27.97;13.77;;;;;;;;;;6243924;23;20159;-90
2021/11/15 00:06:34;;;;;;;37.47;15.60;;;;;;;;;;6243183;23;20170;-90
2021/11/15 00:09:42;;;;;;;30.80;14.30;;;;;;;;;;6243915;23;20171;-89
2021/11/15 00:12:51;;;;;;;29.00;13.93;;;;;;;;;;6244310;23;20194;-89
2021/11/15 00:15:56;;;;;;;34.27;16.03;;;;;;;;;;6243074;22;20170;-89
2021/11/15 00:19:02;;;;;;;36.40;16.47;;;;;;;;;;6239852;23;20175;-89
2021/11/15 00:22:07;;;;;;;34.87;15.27;;;;;;;;;;6242269;23;20451;-89
2021/11/15 00:25:14;;;;;;;34.67;15.37;;;;;;;;;;6241498;23;20219;-89
2021/11/15 00:28:19;;;;;;;42.30;17.17;;;;;;;;;;6242617;22;20163;-89
2021/11/15 00:31:25;;;;;;;33.80;15.77;;;;;;;;;;6242385;23;20189;-87
2021/11/15 00:34:33;;;;;;;28.97;14.27;;;;;;;;;;6240735;23;20482;-90
2021/11/15 00:37:38;;;;;;;30.90;13.80;;;;;;;;;;6240236;23;20590;-90
2021/11/15 00:40:45;;;;;;;33.03;14.67;;;;;;;;;;6239555;23;20209;-90
2021/11/15 00:43:51;;;;;;;31.97;13.80;;;;;;;;;;6239740;22;20190;-88
2021/11/15 00:46:56;;;;;;;28.43;13.73;;;;;;;;;;6239715;23;20226;-90
2021/11/15 00:50:02;;;;;;;31.47;14.30;;;;;;;;;;6241093;22;20179;-90
2021/11/15 00:53:08;;;;;;;29.53;14.03;;;;;;;;;;6241655;23;20194;-89
2021/11/15 00:56:15;;;;;;;31.37;13.53;;;;;;;;;;6263194;22;20151;-90
2021/11/15 00:59:20;;;;;;;32.63;14.77;;;;;;;;;;6244197;23;20166;-89
2021/11/15 01:02:27;;;;;;;30.33;14.33;;;;;;;;;;6243549;23;20162;-90
2021/11/15 01:05:32;;;;;;;29.67;14.00;;;;;;;;;;6243156;23;20163;-91
2021/11/15 01:08:38;;;;;;;33.00;15.43;;;;;;;;;;6245294;23;20167;-90
2021/11/15 01:11:45;;;;;;;29.50;13.80;;;;;;;;;;6243387;23;20273;-90
2021/11/15 01:14:51;;;;;;;28.73;13.57;;;;;;;;;;6244804;22;20237;-89
2021/11/15 01:17:56;;;;;;;33.73;15.47;;;;;;;;;;6244346;22;20158;-90
2021/11/15 01:21:02;;;;;;;33.07;13.87;;;;;;;;;;6243177;22;20178;-90
2021/11/15 01:24:08;;;;;;;28.03;13.33;;;;;;;;;;6245358;23;20201;-90
2021/11/15 03:04:05;;;;;;;44.00;15.53;;;;;;;;;;6209894;22;20230;-91
2021/11/15 03:07:10;;;;;;;74.13;15.67;;;;;;;;;;6239647;23;20169;-89
2021/11/15 03:10:16;;;;;;;73.67;14.83;;;;;;;;;;6237711;22;20215;-89
2021/11/15 03:13:21;;;;;;;54.90;16.43;;;;;;;;;;6239048;23;20194;-89
2021/11/15 03:16:27;;;;;;;74.00;15.10;;;;;;;;;;6240665;23;20174;-91
2021/11/15 03:19:34;;;;;;;123.00;15.40;;;;;;;;;;6241848;23;20190;-89
2021/11/15 03:22:39;;;;;;;139.20;16.27;;;;;;;;;;6240063;22;20536;-89
2021/11/15 03:25:45;;;;;;;52.63;15.70;;;;;;;;;;6239540;23;20229;-90
2021/11/15 03:28:51;;;;;;;48.43;14.27;;;;;;;;;;6239245;23;20163;-89
2021/11/15 03:31:56;;;;;;;76.57;15.23;;;;;;;;;;6241144;23;20194;-89
2021/11/15 03:35:20;;;;;;;55.67;14.37;;;;;;;;;;6239364;23;20170;-89
2021/11/15 03:38:25;;;;;;;83.73;14.53;;;;;;;;;;6240634;23;20299;-90
2021/11/15 03:41:33;;;;;;;85.70;14.87;;;;;;;;;;6241200;23;20170;-89
2021/11/15 03:44:39;;;;;;;66.27;15.07;;;;;;;;;;6215709;23;20175;-90
2021/11/15 03:47:44;;;;;;;105.17;13.63;;;;;;;;;;6243435;23;20169;-90
2021/11/15 03:50:54;;;;;;;70.53;14.43;;;;;;;;;;6241702;23;20239;-89
2021/11/15 03:54:00;;;;;;;47.37;13.63;;;;;;;;;;6243233;23;20216;-90
2021/11/15 03:57:06;;;;;;;86.27;14.73;;;;;;;;;;6240662;23;20193;-90
2021/11/15 04:00:13;;;;;;;39.77;14.60;;;;;;;;;;6241893;23;20166;-91
2021/11/15 04:03:30;;;;;;;50.00;13.97;;;;;;;;;;6257467;22;20223;-91
2021/11/15 04:06:40;;;;;;;90.20;13.93;;;;;;;;;;6241750;23;20171;-89
2021/11/15 04:09:49;;;;;;;52.57;14.97;;;;;;;;;;6241735;22;20162;-91
2021/11/15 04:12:55;;;;;;;70.47;14.57;;;;;;;;;;6242349;22;20197;-90
2021/11/15 04:16:03;;;;;;;34.13;13.60;;;;;;;;;;6243269;23;20162;-91
2021/11/15 04:19:13;;;;;;;91.17;15.13;;;;;;;;;;6240878;22;20229;-90
2021/11/15 04:22:21;;;;;;;104.17;15.60;;;;;;;;;;6240975;23;20170;-89
2021/11/15 04:25:26;;;;;;;49.60;15.83;;;;;;;;;;6238537;22;20170;-89
2021/11/15 04:28:31;;;;;;;99.40;15.43;;;;;;;;;;6242959;22;20162;-90
2021/11/15 04:31:36;;;;;;;60.63;15.17;;;;;;;;;;6240724;23;20278;-91
2021/11/15 04:35:12;;;;;;;45.57;14.33;;;;;;;;;;6241167;23;20167;-89
2021/11/15 04:38:19;;;;;;;49.80;13.27;;;;;;;;;;6242407;22;20151;-90
2021/11/15 04:41:26;;;;;;;68.00;14.90;;;;;;;;;;6243194;23;20157;-89
2021/11/15 04:44:33;;;;;;;58.47;15.30;;;;;;;;;;6242465;23;20171;-90
2021/11/15 04:47:39;;;;;;;35.13;12.83;;;;;;;;;;6243285;23;20256;-92
2021/11/15 04:50:45;;;;;;;58.73;13.67;;;;;;;;;;6243156;23;20167;-91
2021/11/15 04:53:51;;;;;;;45.40;14.00;;;;;;;;;;6243270;22;20221;-90
2021/11/15 04:56:57;;;;;;;31.50;12.80;;;;;;;;;;6243020;23;20507;-90
2021/11/15 05:00:07;;;;;;;52.80;13.63;;;;;;;;;;6244107;23;20171;-90
2021/11/15 05:03:13;;;;;;;35.27;13.50;;;;;;;;;;6243176;23;20174;-91
2021/11/15 05:06:19;;;;;;;34.23;13.93;;;;;;;;;;6241431;23;20169;-90
2021/11/15 05:09:26;;;;;;;42.97;13.90;;;;;;;;;;6242291;23;20257;-90
2021/11/15 05:12:35;;;;;;;64.30;13.60;;;;;;;;;;6241840;22;20194;-90
2021/11/15 05:15:40;;;;;;;29.87;12.53;;;;;;;;;;6241049;23;20178;-90
2021/11/15 05:18:46;;;;;;;33.50;11.43;;;;;;;;;;6242004;23;20162;-90
2021/11/15 05:21:52;;;;;;;38.00;12.40;;;;;;;;;;6243812;23;20281;-90
2021/11/15 05:24:59;;;;;;;52.67;12.97;;;;;;;;;;6241879;23;20175;-89
2021/11/15 05:28:05;;;;;;;32.13;12.37;;;;;;;;;;6242816;22;20162;-90
2021/11/15 05:31:10;;;;;;;43.57;11.43;;;;;;;;;;6243416;23;20170;-90
2021/11/15 05:34:16;;;;;;;48.90;13.43;;;;;;;;;;6242737;23;20314;-89
2021/11/15 05:37:21;;;;;;;34.57;13.27;;;;;;;;;;6242712;23;20249;-89
2021/11/15 05:40:28;;;;;;;33.63;11.43;;;;;;;;;;6243660;23;20289;-89
2021/11/15 05:43:34;;;;;;;29.60;11.90;;;;;;;;;;6243617;23;20154;-90
2021/11/15 05:46:39;;;;;;;51.67;12.50;;;;;;;;;;6241891;23;20175;-88
2021/11/15 05:49:44;;;;;;;29.97;11.70;;;;;;;;;;6239981;23;20175;-90
2021/11/15 05:52:55;;;;;;;26.23;11.33;;;;;;;;;;6242138;23;20263;-88
2021/11/15 05:56:02;;;;;;;35.23;12.40;;;;;;;;;;6241256;23;20174;-89
2021/11/15 05:59:08;;;;;;;26.67;10.27;;;;;;;;;;6240933;23;20536;-89
2021/11/15 06:02:14;;;;;;;29.23;12.40;;;;;;;;;;6243266;22;20175;-90
2021/11/15 06:05:20;;;;;;;40.20;12.63;;;;;;;;;;6244607;23;20194;-90
2021/11/15 06:08:25;;;;;;;31.73;12.87;;;;;;;;;;6244059;23;20165;-90
2021/11/15 06:11:32;;;;;;;47.83;14.13;;;;;;;;;;6242379;23;20170;-89
2021/11/15 06:14:37;;;;;;;78.80;14.07;;;;;;;;;;6240359;23;20154;-90
2021/11/15 06:17:44;;;;;;;52.03;13.60;;;;;;;;;;6244091;22;20259;-88
2021/11/15 06:20:50;;;;;;;56.70;13.90;;;;;;;;;;6245408;23;20252;-91
2021/11/15 06:24:03;;;;;;;67.70;14.67;;;;;;;;;;6245348;23;20174;-91
2021/11/15 06:30:30;;;;;;;112.70;17.03;;;;;;;;;;6244683;23;20159;-91
2021/11/15 06:33:37;;;;;;;62.17;14.90;;;;;;;;;;6244805;22;20193;-91
2021/11/15 06:36:51;;;;;;;54.10;14.27;;;;;;;;;;6245368;23;20240;-91
2021/11/15 06:39:59;;;;;;;63.40;14.33;;;;;;;;;;6245473;23;20633;-91
2021/11/15 06:43:13;;;;;;;49.57;14.20;;;;;;;;;;6246383;23;20175;-90
2021/11/15 06:46:19;;;;;;;47.00;13.03;;;;;;;;;;6245933;22;20208;-91
2021/11/15 06:49:26;;;;;;;31.50;12.93;;;;;;;;;;6243631;23;20167;-90
2021/11/15 06:52:32;;;;;;;34.83;12.20;;;;;;;;;;6243797;23;20244;-91
2021/11/15 06:55:44;;;;;;;29.10;11.77;;;;;;;;;;6250264;23;20167;-90
2021/11/15 06:58:52;;;;;;;37.90;12.53;;;;;;;;;;6244588;23;20529;-90
2021/11/15 07:05:20;;;;;;;51.00;12.90;;;;;;;;;;6243900;23;20190;-91
2021/11/15 07:08:26;;;;;;;92.33;14.17;;;;;;;;;;6242828;23;20171;-91
2021/11/15 07:11:32;;;;;;;65.60;13.70;;;;;;;;;;6243726;23;20621;-91
2021/11/15 07:14:43;;;;;;;30.50;12.60;;;;;;;;;;6245461;22;20163;-90
2021/11/15 07:17:48;;;;;;;38.83;13.17;;;;;;;;;;6245978;23;20167;-90
2021/11/15 07:20:54;;;;;;;51.67;13.23;;;;;;;;;;6244697;23;20718;-91
2021/11/15 07:24:01;;;;;;;50.50;15.03;;;;;;;;;;6244713;23;20202;-89
2021/11/15 07:27:19;;;;;;;60.23;14.27;;;;;;;;;;6245361;23;20469;-91
2021/11/15 07:37:12;;;;;;;58.17;21.60;;;;;;;;;;6247586;23;20187;-89
2021/11/15 07:40:18;;;;;;;63.50;20.03;;;;;;;;;;6244448;23;20178;-91
2021/11/15 07:43:25;;;;;;;66.97;15.67;;;;;;;;;;6245266;23;20210;-91
2021/11/15 07:46:36;;;;;;;42.30;14.00;;;;;;;;;;6248548;23;20171;-90
2021/11/15 07:49:55;;;;;;;66.97;14.80;;;;;;;;;;6250358;23;20197;-91
2021/11/15 07:53:00;;;;;;;51.30;13.37;;;;;;;;;;6247124;23;20251;-90
2021/11/15 07:56:06;;;;;;;48.40;14.30;;;;;;;;;;6244574;23;20166;-91
2021/11/15 07:59:12;;;;;;;64.83;14.60;;;;;;;;;;6244259;23;20203;-91
2021/11/15 08:02:20;;;;;;;55.67;12.67;;;;;;;;;;6246042;23;20170;-90
2021/11/15 08:05:29;;;;;;;37.73;13.07;;;;;;;;;;6250462;23;20197;-90
2021/11/15 08:08:34;;;;;;;38.43;13.20;;;;;;;;;;6248600;23;20166;-92
2021/11/15 08:11:39;;;;;;;41.50;12.67;;;;;;;;;;6246959;23;20181;-90
2021/11/15 08:14:44;;;;;;;42.43;12.67;;;;;;;;;;6244461;22;20268;-91
2021/11/15 08:17:53;;;;;;;38.60;12.20;;;;;;;;;;6243960;23;20190;-91
2021/11/15 08:21:01;;;;;;;91.67;14.80;;;;;;;;;;6244693;23;20190;-92
2021/11/15 08:24:16;;;;;;;38.07;14.57;;;;;;;;;;6243533;23;20210;-93
2021/11/15 08:27:22;;;;;;;46.47;15.73;;;;;;;;;;6247970;22;20163;-91
2021/11/15 08:30:29;;;;;;;32.27;13.33;;;;;;;;;;6245129;23;20166;-91
2021/11/15 08:37:14;;;;;;;44.53;13.37;;;;;;;;;;6248624;23;20190;-93
2021/11/15 08:40:19;;;;;;;41.63;13.77;;;;;;;;;;6243559;23;20205;-91
2021/11/15 08:43:26;;;;;;;30.93;12.10;;;;;;;;;;6243667;23;20182;-89
2021/11/15 08:46:31;;;;;;;53.60;14.53;;;;;;;;;;6242506;23;20169;-90
2021/11/15 08:49:40;;;;;;;49.40;13.03;;;;;;;;;;6243773;22;20158;-90
2021/11/15 08:52:47;;;;;;;41.80;13.63;;;;;;;;;;6244939;23;20250;-90
2021/11/15 08:55:53;;;;;;;42.50;12.77;;;;;;;;;;6241745;23;20171;-89
2021/11/15 08:59:05;;;;;;;34.93;13.03;;;;;;;;;;6242196;22;20162;-91
2021/11/15 09:02:11;;;;;;;34.20;13.20;;;;;;;;;;6243152;22;20253;-90
2021/11/15 09:05:17;;;;;;;34.43;13.47;;;;;;;;;;6245440;23;20197;-89
2021/11/15 09:08:24;;;;;;;50.53;14.93;;;;;;;;;;6246972;23;20222;-90
2021/11/15 09:11:30;;;;;;;31.37;12.90;;;;;;;;;;6244001;23;20214;-90
2021/11/15 09:14:35;;;;;;;34.50;13.07;;;;;;;;;;6242302;22;20209;-90
2021/11/15 09:17:41;;;;;;;40.13;13.67;;;;;;;;;;6243461;22;20158;-89
2021/11/15 09:20:46;;;;;;;33.07;13.63;;;;;;;;;;6242878;23;20214;-89
2021/11/15 09:23:53;;;;;;;29.93;11.93;;;;;;;;;;6242584;23;20194;-91
2021/11/15 09:26:58;;;;;;;30.30;13.03;;;;;;;;;;6242519;23;20190;-90
2021/11/15 09:30:05;;;;;;;30.67;11.80;;;;;;;;;;6243295;23;20150;-90
2021/11/15 09:33:11;;;;;;;30.03;13.63;;;;;;;;;;6242261;22;20174;-91
2021/11/15 09:36:22;;;;;;;31.87;12.13;;;;;;;;;;6243778;22;20508;-90
2021/11/15 09:39:29;;;;;;;29.47;12.70;;;;;;;;;;6245663;23;20173;-89
2021/11/15 09:42:34;;;;;;;32.37;12.47;;;;;;;;;;6244898;23;20162;-92
2021/11/15 09:45:40;;;;;;;34.57;12.40;;;;;;;;;;6244747;23;20158;-91
2021/11/15 09:48:47;;;;;;;30.73;11.90;;;;;;;;;;6245971;23;20610;-91
2021/11/15 09:51:52;;;;;;;33.10;12.67;;;;;;;;;;6243563;23;20162;-89
2021/11/15 09:55:04;;;;;;;28.77;11.80;;;;;;;;;;6244549;22;20194;-91
2021/11/15 09:58:09;;;;;;;27.13;11.07;;;;;;;;;;6242673;23;20190;-90
2021/11/15 10:01:15;;;;;;;27.67;11.40;;;;;;;;;;6244008;23;20194;-90
2021/11/15 10:04:22;;;;;;;27.53;12.63;;;;;;;;;;6242617;23;20700;-89
2021/11/15 10:07:37;;;;;;;26.33;12.47;;;;;;;;;;6248318;23;20190;-91
2021/11/15 10:10:46;;;;;;;26.17;11.43;;;;;;;;;;6246053;23;20171;-90
2021/11/15 10:13:52;;;;;;;40.10;13.10;;;;;;;;;;6246442;23;20255;-90
2021/11/15 10:17:01;;;;;;;29.27;13.20;;;;;;;;;;6248953;22;20246;-90
2021/11/15 10:20:07;;;;;;;31.57;12.60;;;;;;;;;;6248667;23;20182;-90
2021/11/15 10:23:27;;;;;;;28.30;11.33;;;;;;;;;;6251289;22;20169;-90
2021/11/15 10:26:39;;;;;;;27.83;12.43;;;;;;;;;;6248446;23;20175;-90
2021/11/15 13:46:22;;;;;;;38.65;17.33;;;;;;;;;;6207118;22;20214;-91
2021/11/15 13:49:29;;;;;;;41.20;17.52;;;;;;;;;;6252699;23;20170;-89
2021/11/15 13:52:35;;;;;;;43.08;17.30;;;;;;;;;;6250396;23;20171;-89
2021/11/15 13:55:41;;;;;;;41.40;17.25;;;;;;;;;;6248350;22;20490;-91
2021/11/15 13:58:52;;;;;;;39.10;17.10;;;;;;;;;;6250269;22;20169;-91
2021/11/15 14:02:13;;;;;;;42.30;18.75;;;;;;;;;;6250796;23;20170;-92
2021/11/15 14:08:52;;;;;;;39.63;16.85;;;;;;;;;;6270797;22;20250;-91
2021/11/15 14:11:58;;;;;;;46.92;18.20;;;;;;;;;;6249096;23;20220;-90
2021/11/15 14:15:04;;;;;;;42.08;18.13;;;;;;;;;;6249109;23;20224;-91
2021/11/15 14:18:13;;;;;;;36.15;16.33;;;;;;;;;;6251045;23;20211;-89
2021/11/15 14:21:20;;;;;;;47.03;17.20;;;;;;;;;;6250382;23;20166;-89
2021/11/15 14:24:26;;;;;;;40.28;17.33;;;;;;;;;;6249219;22;20189;-90
2021/11/15 14:27:33;;;;;;;43.10;18.25;;;;;;;;;;6247773;23;20159;-90
2021/11/15 14:30:41;;;;;;;49.58;19.17;;;;;;;;;;6248409;23;20158;-90
2021/11/15 14:37:32;;;;;;;41.75;18.10;;;;;;;;;;6249449;22;20167;-90
2021/11/15 14:40:43;;;;;;;46.53;20.25;;;;;;;;;;6248965;23;20190;-95
2021/11/15 14:43:50;;;;;;;53.65;20.38;;;;;;;;;;6247842;23;20174;-90
2021/11/15 14:47:01;;;;;;;46.97;19.73;;;;;;;;;;6248015;22;20241;-91
2021/11/15 14:50:07;;;;;;;62.40;23.65;;;;;;;;;;6249922;23;20177;-90
2021/11/15 14:53:26;;;;;;;96.05;35.17;;;;;;;;;;6247205;23;20178;-90
2021/11/15 14:56:32;;;;;;;87.22;32.33;;;;;;;;;;6246083;23;20174;-90
2021/11/15 14:59:39;;;;;;;71.78;31.40;;;;;;;;;;6245664;22;20198;-90
2021/11/15 15:02:46;;;;;;;59.75;25.38;;;;;;;;;;6247550;22;20170;-91
2021/11/15 15:05:52;;;;;;;56.95;23.50;;;;;;;;;;6246208;23;20182;-91
2021/11/15 15:09:00;;;;;;;64.38;28.42;;;;;;;;;;6247504;23;20167;-91
2021/11/15 15:12:07;;;;;;;60.88;24.02;;;;;;;;;;6246354;23;20174;-90
2021/11/15 15:15:17;;;;;;;58.03;20.98;;;;;;;;;;6246275;23;20182;-90
2021/11/15 15:18:25;;;;;;;56.78;22.30;;;;;;;;;;6245317;23;20270;-90
2021/11/15 15:21:40;;;;;;;53.03;21.13;;;;;;;;;;6246058;23;20175;-90
2021/11/15 15:24:52;;;;;;;58.15;22.25;;;;;;;;;;6245817;23;20213;-91
2021/11/15 15:28:01;;;;;;;53.53;21.50;;;;;;;;;;6245280;23;20190;-91
2021/11/15 15:31:09;;;;;;;54.65;22.02;;;;;;;;;;6245194;23;20227;-91
2021/11/15 15:34:15;;;;;;;49.50;20.83;;;;;;;;;;6243524;22;20234;-89
2021/11/15 15:37:21;;;;;;;64.18;24.73;;;;;;;;;;6246752;22;20208;-90
2021/11/15 15:40:47;;;;;;;58.13;23.93;;;;;;;;;;6245431;23;20182;-91
2021/11/15 15:43:54;;;;;;;63.58;21.35;;;;;;;;;;6243318;23;20221;-90
2021/11/15 15:46:59;;;;;;;66.40;27.07;;;;;;;;;;6244293;23;20178;-89
2021/11/15 15:50:06;;;;;;;59.47;24.77;;;;;;;;;;6244568;22;20162;-89
2021/11/15 15:53:13;;;;;;;59.67;24.60;;;;;;;;;;6245007;23;20205;-90
2021/11/15 15:56:19;;;;;;;68.30;28.63;;;;;;;;;;6244331;23;20286;-91
2021/11/15 15:59:26;;;;;;;67.93;27.13;;;;;;;;;;6244735;23;20213;-91
2021/11/15 16:02:32;;;;;;;65.13;25.63;;;;;;;;;;6246133;23;20158;-90
2021/11/15 16:09:32;;;;;;;49.53;22.03;;;;;;;;;;6252911;23;20170;-90
2021/11/15 16:13:00;;;;;;;62.50;23.30;;;;;;;;;;6249210;22;20175;-91
2021/11/15 16:16:16;;;;;;;59.90;25.23;;;;;;;;;;6248199;23;20186;-90
2021/11/15 16:19:22;;;;;;;94.83;39.37;;;;;;;;;;6246227;23;20288;-91
2021/11/15 16:22:31;;;;;;;69.77;31.57;;;;;;;;;;6246259;23;20170;-92
2021/11/15 16:26:03;;;;;;;61.87;24.30;;;;;;;;;;6263859;23;20194;-90
2021/11/15 16:29:08;;;;;;;61.10;24.63;;;;;;;;;;6248268;23;20233;-92
2021/11/15 16:32:26;;;;;;;61.90;24.83;;;;;;;;;;6249022;23;20174;-91
2021/11/15 16:35:32;;;;;;;62.00;25.93;;;;;;;;;;6247426;23;20175;-89
2021/11/15 16:38:40;;;;;;;57.53;24.90;;;;;;;;;;6249955;23;20287;-90
2021/11/15 16:41:46;;;;;;;88.97;33.37;;;;;;;;;;6245669;23;20183;-90
2021/11/15 16:44:53;;;;;;;80.93;29.23;;;;;;;;;;6246745;23;20484;-89
2021/11/15 16:48:20;;;;;;;65.27;25.67;;;;;;;;;;6248898;22;20170;-90
2021/11/15 16:51:37;;;;;;;59.63;25.50;;;;;;;;;;6250184;23;20219;-89
2021/11/15 16:54:47;;;;;;;62.73;24.03;;;;;;;;;;6249384;23;20194;-89
2021/11/15 16:57:55;;;;;;;51.13;22.47;;;;;;;;;;6248460;23;20311;-91
2021/11/15 17:01:02;;;;;;;55.77;24.40;;;;;;;;;;6249723;23;20165;-90
2021/11/15 17:04:12;;;;;;;56.73;23.33;;;;;;;;;;6248206;23;20162;-90
2021/11/15 17:07:23;;;;;;;54.57;23.33;;;;;;;;;;6247530;23;20183;-89
2021/11/15 17:10:32;;;;;;;57.10;22.37;;;;;;;;;;6248068;23;20210;-90
2021/11/15 17:13:40;;;;;;;60.50;24.10;;;;;;;;;;6249083;22;20217;-91
2021/11/15 17:16:47;;;;;;;54.13;23.13;;;;;;;;;;6248838;23;20223;-91
2021/11/15 17:19:58;;;;;;;53.97;23.63;;;;;;;;;;6247145;23;20681;-91
2021/11/15 17:23:05;;;;;;;54.33;22.33;;;;;;;;;;6246267;23;20174;-88
2021/11/15 17:26:10;;;;;;;58.47;23.87;;;;;;;;;;6249453;23;20235;-87
2021/11/15 17:29:16;;;;;;;59.83;24.37;;;;;;;;;;6247738;22;20166;-89
2021/11/15 17:32:22;;;;;;;50.67;22.00;;;;;;;;;;6244959;22;20673;-90
2021/11/15 17:43:39;;;;;;;50.10;21.20;;;;;;;;;;6246930;23;20227;-90
2021/11/15 17:46:54;;;;;;;53.90;23.43;;;;;;;;;;6245565;23;20185;-88
2021/11/15 17:50:06;;;;;;;51.63;20.70;;;;;;;;;;6246771;22;20174;-90
2021/11/15 17:53:13;;;;;;;58.60;21.23;;;;;;;;;;6248301;23;20217;-91
2021/11/15 17:56:19;;;;;;;51.63;21.73;;;;;;;;;;6246927;23;20610;-91
2021/11/15 17:59:30;;;;;;;55.10;22.90;;;;;;;;;;6248660;22;20186;-89
2021/11/15 18:02:35;;;;;;;66.57;27.47;;;;;;;;;;6248032;22;20217;-90
2021/11/15 18:05:41;;;;;;;53.87;21.97;;;;;;;;;;6247765;23;20231;-92
2021/11/15 18:08:50;;;;;;;57.60;22.37;;;;;;;;;;6247139;23;20247;-91
2021/11/15 18:11:58;;;;;;;56.03;23.43;;;;;;;;;;6251528;22;20171;-89
2021/11/15 18:15:14;;;;;;;53.93;24.13;;;;;;;;;;6234927;22;20205;-92
2021/11/15 18:18:20;;;;;;;51.33;22.03;;;;;;;;;;6252926;22;20178;-90
2021/11/15 18:21:32;;;;;;;53.30;21.47;;;;;;;;;;6251718;23;20167;-91
2021/11/15 18:24:39;;;;;;;49.97;20.40;;;;;;;;;;6249991;23;20614;-90
